createdAt,value
2023-04-06T10:57:57.065Z,88.09
2023-04-06T10:58:57.123Z,87.23
2023-04-06T10:59:57.050Z,86.74
2023-04-06T11:00:57.054Z,86.36
2023-04-06T11:01:57.105Z,87.23
2023-04-06T11:02:57.043Z,86.27
2023-04-06T11:03:57.016Z,86.08
2023-04-06T11:04:56.947Z,85.21
2023-04-06T11:05:56.965Z,85.31
2023-04-06T11:06:56.959Z,84.92
2023-04-06T11:07:56.915Z,85.25
2023-04-06T11:08:56.877Z,85.35
2023-04-06T11:10:11.623Z,84.83
2023-04-06T11:10:56.848Z,83.83
2023-04-06T11:11:56.875Z,84.79
2023-04-06T11:12:56.937Z,84.22
2023-04-06T11:13:56.801Z,84.36
2023-04-06T11:14:56.813Z,83.50
2023-04-06T11:15:56.777Z,84.50
2023-04-06T11:16:56.800Z,84.41
2023-04-06T11:17:56.887Z,84.88
2023-04-06T11:18:56.722Z,84.35
2023-04-06T11:19:56.750Z,83.87
2023-04-06T11:20:56.695Z,82.63
2023-04-06T11:21:58.116Z,81.44
2023-04-06T11:22:56.682Z,81.63
2023-04-06T11:23:56.674Z,83.39
2023-04-06T11:24:56.665Z,83.39
2023-04-06T11:25:56.658Z,83.53
2023-04-06T11:26:56.665Z,83.05
2023-04-06T11:27:56.601Z,81.00
2023-04-06T11:28:56.597Z,80.14
2023-04-06T11:29:56.600Z,80.52
2023-04-06T11:30:56.591Z,81.43
2023-04-06T11:31:56.538Z,81.23
2023-04-06T11:32:56.546Z,80.43
2023-04-06T11:33:56.566Z,81.20
2023-04-06T11:34:56.561Z,81.20
2023-04-06T11:35:56.487Z,79.99
2023-04-06T11:36:56.461Z,79.85
2023-04-06T11:37:57.535Z,79.37
2023-04-06T11:38:56.433Z,80.66
2023-04-06T11:39:56.455Z,79.22
2023-04-06T11:40:56.421Z,79.03
2023-04-06T11:41:56.416Z,79.60
2023-04-06T11:42:56.407Z,78.70
2023-04-06T11:43:56.366Z,79.47
2023-04-06T11:44:56.375Z,79.91
2023-04-06T11:45:56.417Z,78.57
2023-04-06T11:46:56.337Z,78.57
2023-04-06T11:47:56.384Z,79.66
2023-04-06T11:48:56.350Z,79.47
2023-04-06T11:50:05.761Z,79.95
2023-04-06T11:50:56.262Z,78.13
2023-04-06T11:51:56.272Z,77.51
2023-04-06T11:52:56.249Z,77.80
2023-04-06T11:53:56.228Z,77.23
2023-04-06T11:54:56.213Z,78.19
2023-04-06T11:55:56.193Z,79.18
2023-04-06T11:56:56.174Z,79.95
2023-04-06T11:57:56.187Z,80.10
2023-04-06T11:58:56.162Z,79.81
2023-04-06T11:59:56.165Z,79.24
2023-04-06T12:00:56.134Z,79.14
2023-04-06T12:01:56.143Z,78.81
2023-04-06T12:02:56.193Z,78.38
2023-04-06T12:03:56.238Z,78.66
2023-04-06T12:04:56.070Z,78.14
2023-04-06T12:05:56.734Z,78.09
2023-04-06T12:06:56.046Z,78.76
2023-04-06T12:07:56.280Z,78.38
2023-04-06T12:08:56.025Z,77.99
2023-04-06T12:09:56.020Z,79.33
2023-04-06T12:10:55.983Z,79.14
2023-04-06T12:11:55.978Z,77.70
2023-04-06T12:12:55.932Z,77.94
2023-04-06T12:13:55.947Z,78.55
2023-04-06T12:14:55.936Z,78.51
2023-04-06T12:15:55.972Z,78.36
2023-04-06T12:16:55.905Z,77.17
2023-04-06T12:17:55.927Z,76.31
2023-04-06T12:18:55.866Z,76.50
2023-04-06T12:19:57.171Z,77.36
2023-04-06T12:20:55.838Z,77.36
2023-04-06T12:21:55.854Z,77.65
2023-04-06T12:22:55.811Z,77.50
2023-04-06T12:23:55.812Z,77.88
2023-04-06T12:24:55.776Z,77.59
2023-04-06T12:25:55.834Z,77.69
2023-04-06T12:27:06.923Z,77.59
2023-04-06T12:27:55.731Z,77.65
2023-04-06T12:28:55.705Z,77.55
2023-04-06T12:29:55.710Z,77.40
2023-04-06T12:30:55.706Z,78.74
2023-04-06T12:31:55.795Z,78.36
2023-04-06T12:32:55.717Z,78.45
2023-04-06T12:33:55.665Z,78.64
2023-04-06T12:34:55.634Z,78.93
2023-04-06T12:35:55.641Z,79.26
2023-04-06T12:36:55.691Z,77.40
2023-04-06T12:37:55.605Z,76.82
2023-04-06T12:38:55.593Z,78.74
2023-04-06T12:39:55.592Z,78.07
2023-04-06T12:40:55.559Z,76.89
2023-04-06T12:41:55.529Z,76.79
2023-04-06T12:42:55.533Z,77.26
2023-04-06T12:43:55.503Z,76.60
2023-04-06T12:44:55.506Z,76.98
2023-04-06T12:45:55.476Z,77.94
2023-04-06T12:46:55.504Z,77.94
2023-04-06T12:47:55.499Z,78.51
2023-04-06T12:48:55.444Z,78.55
2023-04-06T12:49:55.454Z,78.27
2023-04-06T12:50:55.420Z,78.55
2023-04-06T12:51:55.413Z,78.74
2023-04-06T12:52:55.376Z,78.64
2023-04-06T12:53:55.387Z,78.64
2023-04-06T12:54:55.357Z,77.59
2023-04-06T12:55:55.334Z,77.55
2023-04-06T12:56:55.343Z,77.75
2023-04-06T12:57:55.309Z,78.51
2023-04-06T12:58:55.378Z,77.90
2023-04-06T12:59:55.438Z,77.90
2023-04-06T13:00:55.314Z,77.90
2023-04-06T13:01:55.313Z,79.33
2023-04-06T13:02:55.280Z,79.18
2023-04-06T13:03:55.226Z,78.80
2023-04-06T13:04:55.236Z,78.61
2023-04-06T13:05:55.229Z,78.28
2023-04-06T13:06:55.182Z,79.75
2023-04-06T13:07:55.182Z,79.75
2023-04-06T13:08:55.171Z,79.37
2023-04-06T13:09:55.157Z,79.08
2023-04-06T13:10:55.141Z,79.08
2023-04-06T13:11:55.145Z,79.91
2023-04-06T13:12:55.116Z,80.43
2023-04-06T13:13:55.115Z,79.33
2023-04-06T13:14:55.082Z,79.14
2023-04-06T13:15:55.158Z,79.81
2023-04-06T13:16:55.255Z,79.72
2023-04-06T13:17:56.399Z,80.00
2023-04-06T13:18:55.011Z,80.77
2023-04-06T13:19:55.036Z,80.48
2023-04-06T13:20:55.005Z,80.29
2023-04-06T13:21:54.976Z,80.38
2023-04-06T13:41:12.210Z,82.11
2023-04-06T13:42:12.191Z,82.49
2023-04-06T13:43:12.160Z,81.59
2023-04-06T13:44:12.148Z,82.11
2023-04-06T13:45:12.149Z,81.30
2023-04-06T13:46:12.164Z,81.44
2023-04-06T13:47:12.113Z,82.49
